sensor_id;sensor_type;location;lat;lon;timestamp;temperature;humidity
1700;DHT22;847;48.058;7.810;2023-09-08T00:02:02;21.30;99.00
1700;DHT22;847;48.058;7.810;2023-09-08T00:04:30;21.20;99.00
1700;DHT22;847;48.058;7.810;2023-09-08T00:06:58;21.20;99.00
1700;DHT22;847;48.058;7.810;2023-09-08T00:09:25;21.10;99.00
1700;DHT22;847;48.058;7.810;2023-09-08T00:11:53;21.00;99.00
1700;DHT22;847;48.058;7.810;2023-09-08T00:14:20;21.00;99.00
1700;DHT22;847;48.058;7.810;2023-09-08T00:16:47;21.00;99.00
1700;DHT22;847;48.058;7.810;2023-09-08T00:19:14;20.90;99.00
1700;DHT22;847;48.058;7.810;2023-09-08T00:21:41;20.90;99.00
1700;DHT22;847;48.058;7.810;2023-09-08T00:24:08;20.90;99.00
1700;DHT22;847;48.058;7.810;2023-09-08T00:26:36;20.90;99.00
1700;DHT22;847;48.058;7.810;2023-09-08T00:29:04;21.10;99.00
1700;DHT22;847;48.058;7.810;2023-09-08T00:31:30;21.00;99.00
1700;DHT22;847;48.058;7.810;2023-09-08T00:33:58;21.00;99.00
1700;DHT22;847;48.058;7.810;2023-09-08T00:36:25;20.90;99.00
1700;DHT22;847;48.058;7.810;2023-09-08T00:38:52;20.80;99.00
1700;DHT22;847;48.058;7.810;2023-09-08T00:41:19;20.80;99.00
1700;DHT22;847;48.058;7.810;2023-09-08T00:43:45;20.70;99.00
1700;DHT22;847;48.058;7.810;2023-09-08T00:46:14;20.60;99.00
1700;DHT22;847;48.058;7.810;2023-09-08T00:48:41;20.70;99.00
1700;DHT22;847;48.058;7.810;2023-09-08T00:51:08;20.60;99.00
1700;DHT22;847;48.058;7.810;2023-09-08T00:53:36;20.60;99.00
1700;DHT22;847;48.058;7.810;2023-09-08T00:56:03;20.60;99.00
1700;DHT22;847;48.058;7.810;2023-09-08T00:58:30;20.70;99.00
1700;DHT22;847;48.058;7.810;2023-09-08T01:00:57;20.60;99.00
1700;DHT22;847;48.058;7.810;2023-09-08T01:03:26;20.60;99.00
1700;DHT22;847;48.058;7.810;2023-09-08T01:05:53;20.60;99.00
1700;DHT22;847;48.058;7.810;2023-09-08T01:08:21;20.60;99.00
1700;DHT22;847;48.058;7.810;2023-09-08T01:10:48;20.50;99.00
1700;DHT22;847;48.058;7.810;2023-09-08T01:13:15;20.50;99.00
1700;DHT22;847;48.058;7.810;2023-09-08T01:15:41;20.50;99.00
1700;DHT22;847;48.058;7.810;2023-09-08T01:18:08;20.50;99.00
1700;DHT22;847;48.058;7.810;2023-09-08T01:20:52;20.40;99.00
1700;DHT22;847;48.058;7.810;2023-09-08T01:23:37;20.40;99.00
1700;DHT22;847;48.058;7.810;2023-09-08T01:26:10;20.30;99.00
1700;DHT22;847;48.058;7.810;2023-09-08T01:28:40;20.30;99.00
1700;DHT22;847;48.058;7.810;2023-09-08T01:31:08;20.30;99.00
1700;DHT22;847;48.058;7.810;2023-09-08T01:33:35;20.50;99.00
1700;DHT22;847;48.058;7.810;2023-09-08T01:36:02;20.50;99.00
1700;DHT22;847;48.058;7.810;2023-09-08T01:38:29;20.50;99.00
1700;DHT22;847;48.058;7.810;2023-09-08T01:40:56;20.40;99.00
1700;DHT22;847;48.058;7.810;2023-09-08T01:43:25;20.30;99.00
1700;DHT22;847;48.058;7.810;2023-09-08T01:45:51;20.30;99.00
1700;DHT22;847;48.058;7.810;2023-09-08T01:48:18;20.20;99.00
1700;DHT22;847;48.058;7.810;2023-09-08T01:50:46;20.20;99.00
1700;DHT22;847;48.058;7.810;2023-09-08T01:53:13;20.30;99.00
1700;DHT22;847;48.058;7.810;2023-09-08T01:55:40;20.30;99.00
1700;DHT22;847;48.058;7.810;2023-09-08T01:58:07;20.30;99.00
1700;DHT22;847;48.058;7.810;2023-09-08T02:00:35;20.30;99.00
1700;DHT22;847;48.058;7.810;2023-09-08T02:03:01;20.20;99.00
1700;DHT22;847;48.058;7.810;2023-09-08T02:05:28;20.20;99.00
1700;DHT22;847;48.058;7.810;2023-09-08T02:07:56;20.10;99.00
1700;DHT22;847;48.058;7.810;2023-09-08T02:10:22;20.10;99.00
1700;DHT22;847;48.058;7.810;2023-09-08T02:12:49;20.00;99.00
1700;DHT22;847;48.058;7.810;2023-09-08T02:15:16;20.00;99.00
1700;DHT22;847;48.058;7.810;2023-09-08T02:17:44;20.00;99.00
1700;DHT22;847;48.058;7.810;2023-09-08T02:20:11;20.00;99.00
1700;DHT22;847;48.058;7.810;2023-09-08T02:22:38;20.00;99.00
1700;DHT22;847;48.058;7.810;2023-09-08T02:25:06;20.00;99.00
1700;DHT22;847;48.058;7.810;2023-09-08T02:27:33;20.00;99.00
1700;DHT22;847;48.058;7.810;2023-09-08T02:29:59;20.00;99.00
1700;DHT22;847;48.058;7.810;2023-09-08T02:32:26;19.90;99.00
1700;DHT22;847;48.058;7.810;2023-09-08T02:34:54;19.80;99.00
1700;DHT22;847;48.058;7.810;2023-09-08T02:37:21;19.80;99.00
1700;DHT22;847;48.058;7.810;2023-09-08T02:39:48;19.80;99.00
1700;DHT22;847;48.058;7.810;2023-09-08T02:42:14;19.70;99.00
1700;DHT22;847;48.058;7.810;2023-09-08T02:44:41;19.70;99.00
1700;DHT22;847;48.058;7.810;2023-09-08T02:47:08;19.70;99.00
1700;DHT22;847;48.058;7.810;2023-09-08T02:49:36;19.80;99.00
1700;DHT22;847;48.058;7.810;2023-09-08T02:52:04;19.80;99.00
1700;DHT22;847;48.058;7.810;2023-09-08T02:54:33;19.70;99.00
1700;DHT22;847;48.058;7.810;2023-09-08T02:57:00;19.60;99.00
1700;DHT22;847;48.058;7.810;2023-09-08T02:59:27;19.60;99.00
1700;DHT22;847;48.058;7.810;2023-09-08T03:01:53;19.60;99.00
1700;DHT22;847;48.058;7.810;2023-09-08T03:04:20;19.60;99.00
1700;DHT22;847;48.058;7.810;2023-09-08T03:06:47;19.60;99.00
1700;DHT22;847;48.058;7.810;2023-09-08T03:09:15;19.60;99.00
1700;DHT22;847;48.058;7.810;2023-09-08T03:11:42;19.50;99.00
1700;DHT22;847;48.058;7.810;2023-09-08T03:14:09;19.50;99.00
1700;DHT22;847;48.058;7.810;2023-09-08T03:16:35;19.50;99.00
1700;DHT22;847;48.058;7.810;2023-09-08T03:19:02;19.50;99.00
1700;DHT22;847;48.058;7.810;2023-09-08T03:21:29;19.50;99.00
1700;DHT22;847;48.058;7.810;2023-09-08T03:23:56;19.50;99.00
1700;DHT22;847;48.058;7.810;2023-09-08T03:26:24;19.50;99.00
1700;DHT22;847;48.058;7.810;2023-09-08T03:28:51;19.60;99.00
1700;DHT22;847;48.058;7.810;2023-09-08T03:31:17;19.50;99.00
1700;DHT22;847;48.058;7.810;2023-09-08T03:33:44;19.50;99.00
1700;DHT22;847;48.058;7.810;2023-09-08T03:36:11;19.40;99.00
1700;DHT22;847;48.058;7.810;2023-09-08T03:38:38;19.40;99.00
1700;DHT22;847;48.058;7.810;2023-09-08T03:41:06;19.40;99.00
1700;DHT22;847;48.058;7.810;2023-09-08T03:43:35;19.40;99.00
1700;DHT22;847;48.058;7.810;2023-09-08T03:46:01;19.30;99.00
1700;DHT22;847;48.058;7.810;2023-09-08T03:48:28;19.40;99.00
1700;DHT22;847;48.058;7.810;2023-09-08T03:50:55;19.40;99.00
1700;DHT22;847;48.058;7.810;2023-09-08T03:53:22;19.50;99.00
1700;DHT22;847;48.058;7.810;2023-09-08T03:55:48;19.50;99.00
1700;DHT22;847;48.058;7.810;2023-09-08T03:58:15;19.50;99.00
1700;DHT22;847;48.058;7.810;2023-09-08T04:00:43;19.40;99.00
1700;DHT22;847;48.058;7.810;2023-09-08T04:03:11;19.40;99.00
1700;DHT22;847;48.058;7.810;2023-09-08T04:05:38;19.40;99.00
1700;DHT22;847;48.058;7.810;2023-09-08T04:08:05;19.30;99.00
1700;DHT22;847;48.058;7.810;2023-09-08T04:10:32;19.30;99.00
1700;DHT22;847;48.058;7.810;2023-09-08T04:12:59;19.30;99.00
1700;DHT22;847;48.058;7.810;2023-09-08T04:15:25;19.30;99.00
1700;DHT22;847;48.058;7.810;2023-09-08T04:17:54;19.30;99.00
1700;DHT22;847;48.058;7.810;2023-09-08T04:20:21;19.30;99.00
1700;DHT22;847;48.058;7.810;2023-09-08T04:22:48;19.30;99.00
1700;DHT22;847;48.058;7.810;2023-09-08T04:25:15;19.20;99.00
1700;DHT22;847;48.058;7.810;2023-09-08T04:27:42;19.20;99.00
1700;DHT22;847;48.058;7.810;2023-09-08T04:30:11;19.10;99.00
1700;DHT22;847;48.058;7.810;2023-09-08T04:32:38;19.10;99.00
1700;DHT22;847;48.058;7.810;2023-09-08T04:35:08;19.20;99.00
1700;DHT22;847;48.058;7.810;2023-09-08T04:37:35;19.10;99.00
1700;DHT22;847;48.058;7.810;2023-09-08T04:40:02;19.10;99.00
1700;DHT22;847;48.058;7.810;2023-09-08T04:42:29;19.10;99.00
1700;DHT22;847;48.058;7.810;2023-09-08T04:44:56;19.10;99.00
1700;DHT22;847;48.058;7.810;2023-09-08T04:47:23;19.00;99.00
1700;DHT22;847;48.058;7.810;2023-09-08T04:49:50;18.90;99.00
1700;DHT22;847;48.058;7.810;2023-09-08T04:52:18;19.00;99.00
1700;DHT22;847;48.058;7.810;2023-09-08T04:54:45;19.00;99.00
1700;DHT22;847;48.058;7.810;2023-09-08T04:57:11;19.00;99.00
1700;DHT22;847;48.058;7.810;2023-09-08T04:59:39;19.00;99.00
1700;DHT22;847;48.058;7.810;2023-09-08T05:02:06;19.00;99.00
1700;DHT22;847;48.058;7.810;2023-09-08T05:04:32;18.90;99.00
1700;DHT22;847;48.058;7.810;2023-09-08T05:06:59;18.90;99.00
1700;DHT22;847;48.058;7.810;2023-09-08T05:09:27;18.90;99.00
1700;DHT22;847;48.058;7.810;2023-09-08T05:11:54;19.00;99.00
1700;DHT22;847;48.058;7.810;2023-09-08T05:14:21;19.00;99.00
1700;DHT22;847;48.058;7.810;2023-09-08T05:16:50;19.00;99.00
1700;DHT22;847;48.058;7.810;2023-09-08T05:19:21;19.00;99.00
1700;DHT22;847;48.058;7.810;2023-09-08T05:21:50;19.00;99.00
1700;DHT22;847;48.058;7.810;2023-09-08T05:24:17;19.00;99.00
1700;DHT22;847;48.058;7.810;2023-09-08T05:26:45;18.90;99.00
1700;DHT22;847;48.058;7.810;2023-09-08T05:29:12;18.90;99.00
1700;DHT22;847;48.058;7.810;2023-09-08T05:31:38;18.90;99.00
1700;DHT22;847;48.058;7.810;2023-09-08T05:34:05;19.00;99.00
1700;DHT22;847;48.058;7.810;2023-09-08T05:36:32;19.00;99.00
1700;DHT22;847;48.058;7.810;2023-09-08T05:39:01;19.00;99.00
1700;DHT22;847;48.058;7.810;2023-09-08T05:41:28;19.00;99.00
1700;DHT22;847;48.058;7.810;2023-09-08T05:43:56;19.10;99.00
1700;DHT22;847;48.058;7.810;2023-09-08T05:46:23;19.10;99.00
1700;DHT22;847;48.058;7.810;2023-09-08T05:48:50;19.20;99.00
1700;DHT22;847;48.058;7.810;2023-09-08T05:51:17;19.10;99.00
1700;DHT22;847;48.058;7.810;2023-09-08T05:53:44;19.10;99.00
1700;DHT22;847;48.058;7.810;2023-09-08T05:56:10;19.20;99.00
1700;DHT22;847;48.058;7.810;2023-09-08T05:58:37;19.30;99.00
1700;DHT22;847;48.058;7.810;2023-09-08T06:01:06;19.30;99.00
1700;DHT22;847;48.058;7.810;2023-09-08T06:03:33;19.40;99.00
1700;DHT22;847;48.058;7.810;2023-09-08T06:06:00;19.40;99.00
1700;DHT22;847;48.058;7.810;2023-09-08T06:08:26;19.40;99.00
1700;DHT22;847;48.058;7.810;2023-09-08T06:10:53;19.50;99.00
1700;DHT22;847;48.058;7.810;2023-09-08T06:13:20;19.50;99.00
1700;DHT22;847;48.058;7.810;2023-09-08T06:15:47;19.60;99.00
1700;DHT22;847;48.058;7.810;2023-09-08T06:18:15;19.60;99.00
1700;DHT22;847;48.058;7.810;2023-09-08T06:20:45;19.60;99.00
1700;DHT22;847;48.058;7.810;2023-09-08T06:23:12;19.70;99.00
1700;DHT22;847;48.058;7.810;2023-09-08T06:25:40;19.70;99.00
1700;DHT22;847;48.058;7.810;2023-09-08T06:28:07;19.70;99.00
1700;DHT22;847;48.058;7.810;2023-09-08T06:30:34;19.80;99.00
1700;DHT22;847;48.058;7.810;2023-09-08T06:33:00;19.80;99.00
1700;DHT22;847;48.058;7.810;2023-09-08T06:35:30;19.90;99.00
1700;DHT22;847;48.058;7.810;2023-09-08T06:37:57;20.00;99.00
1700;DHT22;847;48.058;7.810;2023-09-08T06:40:24;20.00;99.00
1700;DHT22;847;48.058;7.810;2023-09-08T06:42:50;20.10;99.00
1700;DHT22;847;48.058;7.810;2023-09-08T06:45:17;20.20;99.00
1700;DHT22;847;48.058;7.810;2023-09-08T06:47:44;20.20;99.00
1700;DHT22;847;48.058;7.810;2023-09-08T06:50:11;20.30;99.00
1700;DHT22;847;48.058;7.810;2023-09-08T06:52:39;20.30;99.00
1700;DHT22;847;48.058;7.810;2023-09-08T06:55:06;20.40;99.00
1700;DHT22;847;48.058;7.810;2023-09-08T06:57:35;20.40;99.00
1700;DHT22;847;48.058;7.810;2023-09-08T07:00:02;20.50;99.00
1700;DHT22;847;48.058;7.810;2023-09-08T07:02:31;20.50;99.00
1700;DHT22;847;48.058;7.810;2023-09-08T07:04:58;20.60;99.00
1700;DHT22;847;48.058;7.810;2023-09-08T07:07:26;20.60;99.00
1700;DHT22;847;48.058;7.810;2023-09-08T07:09:54;20.70;99.00
1700;DHT22;847;48.058;7.810;2023-09-08T07:12:21;20.70;99.00
1700;DHT22;847;48.058;7.810;2023-09-08T07:14:46;20.70;99.00
1700;DHT22;847;48.058;7.810;2023-09-08T07:17:13;20.80;99.00
1700;DHT22;847;48.058;7.810;2023-09-08T07:19:40;20.80;99.00
1700;DHT22;847;48.058;7.810;2023-09-08T07:22:07;20.80;99.00
1700;DHT22;847;48.058;7.810;2023-09-08T07:24:36;20.90;99.00
1700;DHT22;847;48.058;7.810;2023-09-08T07:27:04;20.90;99.00
1700;DHT22;847;48.058;7.810;2023-09-08T07:29:31;21.00;99.00
1700;DHT22;847;48.058;7.810;2023-09-08T07:31:58;21.00;99.00
1700;DHT22;847;48.058;7.810;2023-09-08T07:34:24;21.10;99.00
1700;DHT22;847;48.058;7.810;2023-09-08T07:36:51;21.10;99.00
1700;DHT22;847;48.058;7.810;2023-09-08T07:39:18;21.10;99.00
1700;DHT22;847;48.058;7.810;2023-09-08T07:41:45;21.20;99.00
1700;DHT22;847;48.058;7.810;2023-09-08T07:44:13;21.30;99.00
1700;DHT22;847;48.058;7.810;2023-09-08T07:46:40;21.30;99.00
1700;DHT22;847;48.058;7.810;2023-09-08T07:49:08;21.50;99.00
1700;DHT22;847;48.058;7.810;2023-09-08T07:51:36;21.50;99.00
1700;DHT22;847;48.058;7.810;2023-09-08T07:54:03;21.60;99.00
1700;DHT22;847;48.058;7.810;2023-09-08T07:56:30;21.60;99.00
1700;DHT22;847;48.058;7.810;2023-09-08T07:58:58;21.60;99.00
1700;DHT22;847;48.058;7.810;2023-09-08T08:01:26;21.60;99.00
1700;DHT22;847;48.058;7.810;2023-09-08T08:03:53;21.60;99.00
1700;DHT22;847;48.058;7.810;2023-09-08T08:06:19;21.70;99.00
1700;DHT22;847;48.058;7.810;2023-09-08T08:08:46;21.70;99.00
1700;DHT22;847;48.058;7.810;2023-09-08T08:11:14;21.80;99.00
1700;DHT22;847;48.058;7.810;2023-09-08T08:13:41;21.80;99.00
1700;DHT22;847;48.058;7.810;2023-09-08T08:16:08;21.90;99.00
1700;DHT22;847;48.058;7.810;2023-09-08T08:18:36;22.00;99.00
1700;DHT22;847;48.058;7.810;2023-09-08T08:21:03;22.10;99.00
1700;DHT22;847;48.058;7.810;2023-09-08T08:23:30;22.20;99.00
1700;DHT22;847;48.058;7.810;2023-09-08T08:25:57;22.30;99.00
1700;DHT22;847;48.058;7.810;2023-09-08T08:28:24;22.30;99.00
1700;DHT22;847;48.058;7.810;2023-09-08T08:30:51;22.30;99.00
1700;DHT22;847;48.058;7.810;2023-09-08T08:33:18;22.40;99.00
1700;DHT22;847;48.058;7.810;2023-09-08T08:35:50;22.40;99.00
1700;DHT22;847;48.058;7.810;2023-09-08T08:38:17;22.50;99.00
1700;DHT22;847;48.058;7.810;2023-09-08T08:40:44;22.60;99.00
1700;DHT22;847;48.058;7.810;2023-09-08T08:43:11;22.70;99.00
1700;DHT22;847;48.058;7.810;2023-09-08T08:45:38;22.80;99.00
1700;DHT22;847;48.058;7.810;2023-09-08T08:48:09;22.80;99.00
1700;DHT22;847;48.058;7.810;2023-09-08T08:50:37;22.90;99.00
1700;DHT22;847;48.058;7.810;2023-09-08T08:53:06;23.00;99.00
1700;DHT22;847;48.058;7.810;2023-09-08T08:55:34;23.00;99.00
1700;DHT22;847;48.058;7.810;2023-09-08T08:58:04;23.10;99.00
1700;DHT22;847;48.058;7.810;2023-09-08T09:00:34;23.20;99.00
1700;DHT22;847;48.058;7.810;2023-09-08T09:03:04;23.30;99.00
1700;DHT22;847;48.058;7.810;2023-09-08T09:05:32;23.30;99.00
1700;DHT22;847;48.058;7.810;2023-09-08T09:08:01;23.30;98.50
1700;DHT22;847;48.058;7.810;2023-09-08T09:10:31;23.30;98.90
1700;DHT22;847;48.058;7.810;2023-09-08T09:12:58;23.40;99.00
1700;DHT22;847;48.058;7.810;2023-09-08T09:15:29;23.50;98.80
1700;DHT22;847;48.058;7.810;2023-09-08T09:18:03;23.60;98.30
1700;DHT22;847;48.058;7.810;2023-09-08T09:20:30;23.70;98.20
1700;DHT22;847;48.058;7.810;2023-09-08T09:22:57;23.80;97.50
1700;DHT22;847;48.058;7.810;2023-09-08T09:25:28;23.90;96.80
1700;DHT22;847;48.058;7.810;2023-09-08T09:27:58;23.90;96.50
1700;DHT22;847;48.058;7.810;2023-09-08T09:30:26;23.80;96.40
1700;DHT22;847;48.058;7.810;2023-09-08T09:33:00;23.80;97.10
1700;DHT22;847;48.058;7.810;2023-09-08T09:35:41;23.90;96.90
1700;DHT22;847;48.058;7.810;2023-09-08T09:38:07;24.10;97.10
1700;DHT22;847;48.058;7.810;2023-09-08T09:40:35;24.20;96.10
1700;DHT22;847;48.058;7.810;2023-09-08T09:43:06;24.30;95.00
1700;DHT22;847;48.058;7.810;2023-09-08T09:45:37;24.30;94.90
1700;DHT22;847;48.058;7.810;2023-09-08T09:48:05;24.40;94.30
1700;DHT22;847;48.058;7.810;2023-09-08T09:50:34;24.50;94.70
1700;DHT22;847;48.058;7.810;2023-09-08T09:53:07;24.40;94.80
1700;DHT22;847;48.058;7.810;2023-09-08T09:55:34;24.50;94.10
1700;DHT22;847;48.058;7.810;2023-09-08T09:58:03;24.50;94.40
1700;DHT22;847;48.058;7.810;2023-09-08T10:00:33;24.60;93.10
1700;DHT22;847;48.058;7.810;2023-09-08T10:03:01;24.90;93.20
1700;DHT22;847;48.058;7.810;2023-09-08T10:05:28;24.90;93.30
1700;DHT22;847;48.058;7.810;2023-09-08T10:07:55;24.90;93.30
1700;DHT22;847;48.058;7.810;2023-09-08T10:10:26;24.80;93.80
1700;DHT22;847;48.058;7.810;2023-09-08T10:12:54;24.80;93.20
1700;DHT22;847;48.058;7.810;2023-09-08T10:15:22;24.90;95.10
1700;DHT22;847;48.058;7.810;2023-09-08T10:17:54;25.00;95.70
1700;DHT22;847;48.058;7.810;2023-09-08T10:20:23;25.10;96.30
1700;DHT22;847;48.058;7.810;2023-09-08T10:22:53;25.20;94.20
1700;DHT22;847;48.058;7.810;2023-09-08T10:25:21;25.40;91.90
1700;DHT22;847;48.058;7.810;2023-09-08T10:27:49;25.50;91.60
1700;DHT22;847;48.058;7.810;2023-09-08T10:30:16;25.60;91.10
1700;DHT22;847;48.058;7.810;2023-09-08T10:32:46;25.70;91.40
1700;DHT22;847;48.058;7.810;2023-09-08T10:35:16;25.80;90.10
1700;DHT22;847;48.058;7.810;2023-09-08T10:37:44;25.70;90.10
1700;DHT22;847;48.058;7.810;2023-09-08T10:40:21;25.70;90.20
1700;DHT22;847;48.058;7.810;2023-09-08T10:42:48;25.60;91.30
1700;DHT22;847;48.058;7.810;2023-09-08T10:45:16;25.80;90.20
1700;DHT22;847;48.058;7.810;2023-09-08T10:47:56;25.90;89.80
1700;DHT22;847;48.058;7.810;2023-09-08T10:50:31;26.10;87.90
1700;DHT22;847;48.058;7.810;2023-09-08T10:53:07;26.10;89.00
1700;DHT22;847;48.058;7.810;2023-09-08T10:55:36;26.20;87.20
1700;DHT22;847;48.058;7.810;2023-09-08T10:58:04;26.20;87.90
1700;DHT22;847;48.058;7.810;2023-09-08T11:00:43;26.20;88.10
1700;DHT22;847;48.058;7.810;2023-09-08T11:03:11;26.30;86.60
1700;DHT22;847;48.058;7.810;2023-09-08T11:05:41;26.30;86.60
1700;DHT22;847;48.058;7.810;2023-09-08T11:08:08;26.40;87.00
1700;DHT22;847;48.058;7.810;2023-09-08T11:10:36;26.50;87.40
1700;DHT22;847;48.058;7.810;2023-09-08T11:13:06;26.60;87.20
1700;DHT22;847;48.058;7.810;2023-09-08T11:15:33;26.70;86.10
1700;DHT22;847;48.058;7.810;2023-09-08T11:18:05;26.70;85.30
1700;DHT22;847;48.058;7.810;2023-09-08T11:20:34;26.70;86.90
1700;DHT22;847;48.058;7.810;2023-09-08T11:23:03;26.80;84.50
1700;DHT22;847;48.058;7.810;2023-09-08T11:25:32;26.80;84.40
1700;DHT22;847;48.058;7.810;2023-09-08T11:27:59;26.90;82.90
1700;DHT22;847;48.058;7.810;2023-09-08T11:30:26;26.90;83.70
1700;DHT22;847;48.058;7.810;2023-09-08T11:32:53;26.90;85.50
1700;DHT22;847;48.058;7.810;2023-09-08T11:35:20;27.00;83.40
1700;DHT22;847;48.058;7.810;2023-09-08T11:37:47;27.10;84.00
1700;DHT22;847;48.058;7.810;2023-09-08T11:40:16;27.20;82.70
1700;DHT22;847;48.058;7.810;2023-09-08T11:42:45;27.20;83.10
1700;DHT22;847;48.058;7.810;2023-09-08T11:45:12;27.30;81.90
1700;DHT22;847;48.058;7.810;2023-09-08T11:47:40;27.30;81.60
1700;DHT22;847;48.058;7.810;2023-09-08T11:50:09;27.40;80.80
1700;DHT22;847;48.058;7.810;2023-09-08T11:52:41;27.50;81.80
1700;DHT22;847;48.058;7.810;2023-09-08T11:55:08;27.40;80.40
1700;DHT22;847;48.058;7.810;2023-09-08T11:57:38;27.50;79.90
1700;DHT22;847;48.058;7.810;2023-09-08T12:00:07;27.60;78.50
1700;DHT22;847;48.058;7.810;2023-09-08T12:02:36;27.70;72.90
1700;DHT22;847;48.058;7.810;2023-09-08T12:05:04;27.70;71.70
1700;DHT22;847;48.058;7.810;2023-09-08T12:07:31;27.70;75.20
1700;DHT22;847;48.058;7.810;2023-09-08T12:09:58;27.70;76.60
1700;DHT22;847;48.058;7.810;2023-09-08T12:12:25;27.70;75.80
1700;DHT22;847;48.058;7.810;2023-09-08T12:14:54;27.70;77.30
1700;DHT22;847;48.058;7.810;2023-09-08T12:17:21;27.60;75.70
1700;DHT22;847;48.058;7.810;2023-09-08T12:19:50;27.90;76.00
1700;DHT22;847;48.058;7.810;2023-09-08T12:22:18;27.90;74.70
1700;DHT22;847;48.058;7.810;2023-09-08T12:24:57;27.90;73.70
1700;DHT22;847;48.058;7.810;2023-09-08T12:27:25;28.00;75.60
1700;DHT22;847;48.058;7.810;2023-09-08T12:29:55;28.20;77.20
1700;DHT22;847;48.058;7.810;2023-09-08T12:32:22;28.30;74.60
1700;DHT22;847;48.058;7.810;2023-09-08T12:34:50;28.00;75.90
1700;DHT22;847;48.058;7.810;2023-09-08T12:37:20;28.00;77.90
1700;DHT22;847;48.058;7.810;2023-09-08T12:39:47;28.20;77.00
1700;DHT22;847;48.058;7.810;2023-09-08T12:42:14;28.40;75.10
1700;DHT22;847;48.058;7.810;2023-09-08T12:44:41;28.40;74.70
1700;DHT22;847;48.058;7.810;2023-09-08T12:47:11;28.40;77.10
1700;DHT22;847;48.058;7.810;2023-09-08T12:49:38;28.60;76.60
1700;DHT22;847;48.058;7.810;2023-09-08T12:52:06;28.70;75.20
1700;DHT22;847;48.058;7.810;2023-09-08T12:54:33;28.80;75.00
1700;DHT22;847;48.058;7.810;2023-09-08T12:56:59;28.80;76.20
1700;DHT22;847;48.058;7.810;2023-09-08T12:59:26;28.80;74.50
1700;DHT22;847;48.058;7.810;2023-09-08T13:01:53;28.80;75.20
1700;DHT22;847;48.058;7.810;2023-09-08T13:04:21;28.80;74.40
1700;DHT22;847;48.058;7.810;2023-09-08T13:06:48;28.70;74.20
1700;DHT22;847;48.058;7.810;2023-09-08T13:09:15;28.80;74.20
1700;DHT22;847;48.058;7.810;2023-09-08T13:11:42;28.80;73.40
1700;DHT22;847;48.058;7.810;2023-09-08T13:14:09;28.80;75.90
1700;DHT22;847;48.058;7.810;2023-09-08T13:16:36;28.80;73.20
1700;DHT22;847;48.058;7.810;2023-09-08T13:19:02;28.70;72.90
1700;DHT22;847;48.058;7.810;2023-09-08T13:21:30;28.90;72.20
1700;DHT22;847;48.058;7.810;2023-09-08T13:23:57;29.00;72.80
1700;DHT22;847;48.058;7.810;2023-09-08T13:26:24;29.00;71.10
1700;DHT22;847;48.058;7.810;2023-09-08T13:28:51;29.10;72.10
1700;DHT22;847;48.058;7.810;2023-09-08T13:31:18;29.20;71.60
1700;DHT22;847;48.058;7.810;2023-09-08T13:33:44;29.10;71.80
1700;DHT22;847;48.058;7.810;2023-09-08T13:36:11;29.20;72.10
1700;DHT22;847;48.058;7.810;2023-09-08T13:38:39;29.20;72.00
1700;DHT22;847;48.058;7.810;2023-09-08T13:41:06;29.20;70.80
1700;DHT22;847;48.058;7.810;2023-09-08T13:43:33;29.40;71.00
1700;DHT22;847;48.058;7.810;2023-09-08T13:45:59;29.50;71.20
1700;DHT22;847;48.058;7.810;2023-09-08T13:48:27;29.60;71.10
1700;DHT22;847;48.058;7.810;2023-09-08T13:50:53;29.50;69.70
1700;DHT22;847;48.058;7.810;2023-09-08T13:53:21;29.40;71.10
1700;DHT22;847;48.058;7.810;2023-09-08T13:55:49;29.40;69.40
1700;DHT22;847;48.058;7.810;2023-09-08T13:58:16;29.30;70.20
1700;DHT22;847;48.058;7.810;2023-09-08T14:00:43;29.40;70.30
1700;DHT22;847;48.058;7.810;2023-09-08T14:03:10;29.40;68.90
1700;DHT22;847;48.058;7.810;2023-09-08T14:05:36;29.50;68.50
1700;DHT22;847;48.058;7.810;2023-09-08T14:08:04;29.50;69.90
1700;DHT22;847;48.058;7.810;2023-09-08T14:10:30;29.50;69.40
1700;DHT22;847;48.058;7.810;2023-09-08T14:12:58;29.40;69.10
1700;DHT22;847;48.058;7.810;2023-09-08T14:15:25;29.40;68.20
1700;DHT22;847;48.058;7.810;2023-09-08T14:17:52;29.50;67.30
1700;DHT22;847;48.058;7.810;2023-09-08T14:20:19;29.50;66.70
1700;DHT22;847;48.058;7.810;2023-09-08T14:22:46;29.50;66.40
1700;DHT22;847;48.058;7.810;2023-09-08T14:25:13;29.60;66.10
1700;DHT22;847;48.058;7.810;2023-09-08T14:27:40;29.60;68.30
1700;DHT22;847;48.058;7.810;2023-09-08T14:30:08;29.70;67.50
1700;DHT22;847;48.058;7.810;2023-09-08T14:32:35;29.70;67.50
1700;DHT22;847;48.058;7.810;2023-09-08T14:35:02;29.70;68.10
1700;DHT22;847;48.058;7.810;2023-09-08T14:37:29;29.70;68.30
1700;DHT22;847;48.058;7.810;2023-09-08T14:39:56;29.80;66.30
1700;DHT22;847;48.058;7.810;2023-09-08T14:42:23;29.90;65.60
1700;DHT22;847;48.058;7.810;2023-09-08T14:44:49;30.00;66.10
1700;DHT22;847;48.058;7.810;2023-09-08T14:47:18;30.00;65.90
1700;DHT22;847;48.058;7.810;2023-09-08T14:49:46;30.10;66.50
1700;DHT22;847;48.058;7.810;2023-09-08T14:52:13;30.10;65.00
1700;DHT22;847;48.058;7.810;2023-09-08T14:54:40;30.20;64.70
1700;DHT22;847;48.058;7.810;2023-09-08T14:57:07;30.20;63.40
1700;DHT22;847;48.058;7.810;2023-09-08T14:59:34;30.10;63.50
1700;DHT22;847;48.058;7.810;2023-09-08T15:02:01;30.20;61.90
1700;DHT22;847;48.058;7.810;2023-09-08T15:04:29;30.20;61.50
1700;DHT22;847;48.058;7.810;2023-09-08T15:06:56;30.20;61.70
1700;DHT22;847;48.058;7.810;2023-09-08T15:09:23;30.20;61.30
1700;DHT22;847;48.058;7.810;2023-09-08T15:11:50;30.30;61.10
1700;DHT22;847;48.058;7.810;2023-09-08T15:14:17;30.30;62.50
1700;DHT22;847;48.058;7.810;2023-09-08T15:16:43;30.30;63.40
1700;DHT22;847;48.058;7.810;2023-09-08T15:19:10;30.30;63.90
1700;DHT22;847;48.058;7.810;2023-09-08T15:21:41;30.20;64.10
1700;DHT22;847;48.058;7.810;2023-09-08T15:24:08;30.20;64.20
1700;DHT22;847;48.058;7.810;2023-09-08T15:26:35;30.30;64.50
1700;DHT22;847;48.058;7.810;2023-09-08T15:29:02;30.40;63.50
1700;DHT22;847;48.058;7.810;2023-09-08T15:31:29;30.30;64.30
1700;DHT22;847;48.058;7.810;2023-09-08T15:33:56;30.40;65.20
1700;DHT22;847;48.058;7.810;2023-09-08T15:36:23;30.40;64.40
1700;DHT22;847;48.058;7.810;2023-09-08T15:38:51;30.30;65.20
1700;DHT22;847;48.058;7.810;2023-09-08T15:41:18;30.30;65.40
1700;DHT22;847;48.058;7.810;2023-09-08T15:43:48;30.30;66.10
1700;DHT22;847;48.058;7.810;2023-09-08T15:46:16;30.30;66.00
1700;DHT22;847;48.058;7.810;2023-09-08T15:48:43;30.30;67.00
1700;DHT22;847;48.058;7.810;2023-09-08T15:51:10;30.30;67.00
1700;DHT22;847;48.058;7.810;2023-09-08T15:53:37;30.30;65.80
1700;DHT22;847;48.058;7.810;2023-09-08T15:56:06;30.30;66.20
1700;DHT22;847;48.058;7.810;2023-09-08T15:58:34;30.20;67.50
1700;DHT22;847;48.058;7.810;2023-09-08T16:01:00;30.20;68.00
1700;DHT22;847;48.058;7.810;2023-09-08T16:03:27;30.20;67.30
1700;DHT22;847;48.058;7.810;2023-09-08T16:05:54;30.10;68.00
1700;DHT22;847;48.058;7.810;2023-09-08T16:08:21;30.00;68.00
1700;DHT22;847;48.058;7.810;2023-09-08T16:10:48;30.00;68.80
1700;DHT22;847;48.058;7.810;2023-09-08T16:13:16;29.90;69.60
1700;DHT22;847;48.058;7.810;2023-09-08T16:15:43;29.90;69.30
1700;DHT22;847;48.058;7.810;2023-09-08T16:18:10;29.80;69.40
1700;DHT22;847;48.058;7.810;2023-09-08T16:20:37;29.80;69.40